sensor_id;sensor_type;location;lat;lon;timestamp;P1;durP1;ratioP1;P2;durP2;ratioP2
703;SDS011;335;48.694;9.120;2024-01-15T00:00:08;13.23;;;8.07;;
703;SDS011;335;48.694;9.120;2024-01-15T00:02:53;13.57;;;9.27;;
703;SDS011;335;48.694;9.120;2024-01-15T00:05:39;11.85;;;8.88;;
703;SDS011;335;48.694;9.120;2024-01-15T00:08:24;13.40;;;9.20;;
703;SDS011;335;48.694;9.120;2024-01-15T00:11:09;13.65;;;7.93;;
703;SDS011;335;48.694;9.120;2024-01-15T00:13:55;11.38;;;8.20;;
703;SDS011;335;48.694;9.120;2024-01-15T00:16:40;12.52;;;8.60;;
703;SDS011;335;48.694;9.120;2024-01-15T00:19:26;14.95;;;8.90;;
703;SDS011;335;48.694;9.120;2024-01-15T00:22:12;11.65;;;7.93;;
703;SDS011;335;48.694;9.120;2024-01-15T00:24:57;14.32;;;8.57;;
703;SDS011;335;48.694;9.120;2024-01-15T00:27:43;12.57;;;8.75;;
703;SDS011;335;48.694;9.120;2024-01-15T00:30:31;13.35;;;9.02;;
703;SDS011;335;48.694;9.120;2024-01-15T00:33:16;12.02;;;7.93;;
703;SDS011;335;48.694;9.120;2024-01-15T00:36:02;13.15;;;8.15;;
703;SDS011;335;48.694;9.120;2024-01-15T00:38:48;12.77;;;8.60;;
703;SDS011;335;48.694;9.120;2024-01-15T00:41:33;13.77;;;8.10;;
703;SDS011;335;48.694;9.120;2024-01-15T00:44:19;13.73;;;8.32;;
703;SDS011;335;48.694;9.120;2024-01-15T00:47:04;14.20;;;8.57;;
703;SDS011;335;48.694;9.120;2024-01-15T00:49:49;11.45;;;8.35;;
703;SDS011;335;48.694;9.120;2024-01-15T00:52:35;15.40;;;8.88;;
703;SDS011;335;48.694;9.120;2024-01-15T00:55:20;14.68;;;9.48;;
703;SDS011;335;48.694;9.120;2024-01-15T00:58:05;11.50;;;7.70;;
703;SDS011;335;48.694;9.120;2024-01-15T01:00:51;15.63;;;9.32;;
703;SDS011;335;48.694;9.120;2024-01-15T01:03:36;11.40;;;7.30;;
703;SDS011;335;48.694;9.120;2024-01-15T01:06:21;13.60;;;8.30;;
703;SDS011;335;48.694;9.120;2024-01-15T01:09:07;13.98;;;8.45;;
703;SDS011;335;48.694;9.120;2024-01-15T01:11:52;12.07;;;7.45;;
703;SDS011;335;48.694;9.120;2024-01-15T01:14:37;14.05;;;8.23;;
703;SDS011;335;48.694;9.120;2024-01-15T01:17:23;13.50;;;7.75;;
703;SDS011;335;48.694;9.120;2024-01-15T01:20:08;12.82;;;8.07;;
703;SDS011;335;48.694;9.120;2024-01-15T01:22:55;12.70;;;8.07;;
703;SDS011;335;48.694;9.120;2024-01-15T01:25:40;10.23;;;7.00;;
703;SDS011;335;48.694;9.120;2024-01-15T01:28:26;12.48;;;7.35;;
703;SDS011;335;48.694;9.120;2024-01-15T01:31:11;14.80;;;7.68;;
703;SDS011;335;48.694;9.120;2024-01-15T01:33:56;13.85;;;9.30;;
703;SDS011;335;48.694;9.120;2024-01-15T01:36:42;17.60;;;8.93;;
703;SDS011;335;48.694;9.120;2024-01-15T01:39:27;11.10;;;7.63;;
703;SDS011;335;48.694;9.120;2024-01-15T01:42:13;12.57;;;7.63;;
703;SDS011;335;48.694;9.120;2024-01-15T01:44:58;13.93;;;7.75;;
703;SDS011;335;48.694;9.120;2024-01-15T01:47:43;10.23;;;7.25;;
703;SDS011;335;48.694;9.120;2024-01-15T01:50:29;17.45;;;8.75;;
703;SDS011;335;48.694;9.120;2024-01-15T01:53:16;14.48;;;9.38;;
703;SDS011;335;48.694;9.120;2024-01-15T01:56:02;13.50;;;8.15;;
703;SDS011;335;48.694;9.120;2024-01-15T01:58:48;11.18;;;7.55;;
703;SDS011;335;48.694;9.120;2024-01-15T02:01:33;14.32;;;8.20;;
703;SDS011;335;48.694;9.120;2024-01-15T02:04:19;10.48;;;6.65;;
703;SDS011;335;48.694;9.120;2024-01-15T02:07:04;13.65;;;6.90;;
703;SDS011;335;48.694;9.120;2024-01-15T02:09:50;13.40;;;6.70;;
703;SDS011;335;48.694;9.120;2024-01-15T02:12:35;14.80;;;9.20;;
703;SDS011;335;48.694;9.120;2024-01-15T02:15:21;12.05;;;8.15;;
703;SDS011;335;48.694;9.120;2024-01-15T02:18:06;14.82;;;8.80;;
703;SDS011;335;48.694;9.120;2024-01-15T02:20:54;15.27;;;7.88;;
703;SDS011;335;48.694;9.120;2024-01-15T02:23:40;12.95;;;7.03;;
703;SDS011;335;48.694;9.120;2024-01-15T02:26:25;13.40;;;8.18;;
703;SDS011;335;48.694;9.120;2024-01-15T02:29:11;12.43;;;7.25;;
703;SDS011;335;48.694;9.120;2024-01-15T02:31:57;15.07;;;8.18;;
703;SDS011;335;48.694;9.120;2024-01-15T02:34:42;9.80;;;6.75;;
703;SDS011;335;48.694;9.120;2024-01-15T02:37:27;11.95;;;7.18;;
703;SDS011;335;48.694;9.120;2024-01-15T02:40:13;11.30;;;7.68;;
703;SDS011;335;48.694;9.120;2024-01-15T02:42:58;11.77;;;7.82;;
703;SDS011;335;48.694;9.120;2024-01-15T02:45:44;14.10;;;7.53;;
703;SDS011;335;48.694;9.120;2024-01-15T02:48:29;10.13;;;7.78;;
703;SDS011;335;48.694;9.120;2024-01-15T02:51:14;11.80;;;7.63;;
703;SDS011;335;48.694;9.120;2024-01-15T02:54:00;10.18;;;7.80;;
703;SDS011;335;48.694;9.120;2024-01-15T02:56:46;14.48;;;8.50;;
703;SDS011;335;48.694;9.120;2024-01-15T02:59:31;12.85;;;8.43;;
703;SDS011;335;48.694;9.120;2024-01-15T03:02:17;14.90;;;10.32;;
703;SDS011;335;48.694;9.120;2024-01-15T03:05:02;11.02;;;8.07;;
703;SDS011;335;48.694;9.120;2024-01-15T03:07:47;11.60;;;8.13;;
703;SDS011;335;48.694;9.120;2024-01-15T03:10:33;13.55;;;8.65;;
703;SDS011;335;48.694;9.120;2024-01-15T03:13:18;13.52;;;8.70;;
703;SDS011;335;48.694;9.120;2024-01-15T03:16:04;13.48;;;8.05;;
703;SDS011;335;48.694;9.120;2024-01-15T03:18:50;12.70;;;9.13;;
703;SDS011;335;48.694;9.120;2024-01-15T03:21:35;14.40;;;9.05;;
703;SDS011;335;48.694;9.120;2024-01-15T03:24:21;10.98;;;7.55;;
703;SDS011;335;48.694;9.120;2024-01-15T03:27:06;12.55;;;7.45;;
703;SDS011;335;48.694;9.120;2024-01-15T03:29:51;15.07;;;9.82;;
703;SDS011;335;48.694;9.120;2024-01-15T03:32:37;13.05;;;8.13;;
703;SDS011;335;48.694;9.120;2024-01-15T03:35:22;14.88;;;8.30;;
703;SDS011;335;48.694;9.120;2024-01-15T03:38:07;14.60;;;8.88;;
703;SDS011;335;48.694;9.120;2024-01-15T03:40:53;13.35;;;8.45;;
703;SDS011;335;48.694;9.120;2024-01-15T03:43:38;13.60;;;8.05;;
703;SDS011;335;48.694;9.120;2024-01-15T03:46:24;12.55;;;8.15;;
703;SDS011;335;48.694;9.120;2024-01-15T03:49:10;11.65;;;8.00;;
703;SDS011;335;48.694;9.120;2024-01-15T03:51:55;13.60;;;7.90;;
703;SDS011;335;48.694;9.120;2024-01-15T03:54:40;12.45;;;7.80;;
703;SDS011;335;48.694;9.120;2024-01-15T03:57:26;11.80;;;7.50;;
703;SDS011;335;48.694;9.120;2024-01-15T04:00:13;13.90;;;9.25;;
703;SDS011;335;48.694;9.120;2024-01-15T04:03:02;13.77;;;7.78;;
703;SDS011;335;48.694;9.120;2024-01-15T04:05:47;11.48;;;7.40;;
703;SDS011;335;48.694;9.120;2024-01-15T04:08:32;12.55;;;8.25;;
703;SDS011;335;48.694;9.120;2024-01-15T04:11:18;14.77;;;8.27;;
703;SDS011;335;48.694;9.120;2024-01-15T04:14:03;12.90;;;7.05;;
703;SDS011;335;48.694;9.120;2024-01-15T04:16:48;11.95;;;7.47;;
703;SDS011;335;48.694;9.120;2024-01-15T04:19:34;12.65;;;6.68;;
703;SDS011;335;48.694;9.120;2024-01-15T04:22:19;13.30;;;7.43;;
703;SDS011;335;48.694;9.120;2024-01-15T04:25:05;10.73;;;7.72;;
703;SDS011;335;48.694;9.120;2024-01-15T04:27:50;11.63;;;7.35;;
703;SDS011;335;48.694;9.120;2024-01-15T04:30:36;14.32;;;6.97;;
703;SDS011;335;48.694;9.120;2024-01-15T04:33:21;14.15;;;8.70;;
703;SDS011;335;48.694;9.120;2024-01-15T04:36:06;13.60;;;7.88;;
703;SDS011;335;48.694;9.120;2024-01-15T04:38:52;15.23;;;8.43;;
703;SDS011;335;48.694;9.120;2024-01-15T04:41:37;9.52;;;5.85;;
703;SDS011;335;48.694;9.120;2024-01-15T04:44:22;12.52;;;7.07;;
703;SDS011;335;48.694;9.120;2024-01-15T04:47:08;9.90;;;7.03;;
703;SDS011;335;48.694;9.120;2024-01-15T04:49:53;14.43;;;8.73;;
703;SDS011;335;48.694;9.120;2024-01-15T04:52:38;11.65;;;7.40;;
703;SDS011;335;48.694;9.120;2024-01-15T04:55:24;9.20;;;6.45;;
703;SDS011;335;48.694;9.120;2024-01-15T04:58:09;10.35;;;7.32;;
703;SDS011;335;48.694;9.120;2024-01-15T05:00:54;10.73;;;7.20;;
703;SDS011;335;48.694;9.120;2024-01-15T05:03:40;12.88;;;6.55;;
703;SDS011;335;48.694;9.120;2024-01-15T05:06:25;10.93;;;6.95;;
703;SDS011;335;48.694;9.120;2024-01-15T05:09:11;11.80;;;7.28;;
703;SDS011;335;48.694;9.120;2024-01-15T05:11:56;12.13;;;7.60;;
703;SDS011;335;48.694;9.120;2024-01-15T05:14:42;13.57;;;7.40;;
703;SDS011;335;48.694;9.120;2024-01-15T05:17:27;10.20;;;7.53;;
703;SDS011;335;48.694;9.120;2024-01-15T05:20:13;10.27;;;6.88;;
703;SDS011;335;48.694;9.120;2024-01-15T05:22:58;11.55;;;7.10;;
703;SDS011;335;48.694;9.120;2024-01-15T05:25:43;12.18;;;7.13;;
703;SDS011;335;48.694;9.120;2024-01-15T05:28:29;11.88;;;7.30;;
703;SDS011;335;48.694;9.120;2024-01-15T05:31:14;12.68;;;8.15;;
703;SDS011;335;48.694;9.120;2024-01-15T05:34:00;11.73;;;7.13;;
703;SDS011;335;48.694;9.120;2024-01-15T05:36:46;13.73;;;8.30;;
703;SDS011;335;48.694;9.120;2024-01-15T05:39:32;11.68;;;7.72;;
703;SDS011;335;48.694;9.120;2024-01-15T05:42:18;16.58;;;9.05;;
703;SDS011;335;48.694;9.120;2024-01-15T05:45:03;14.20;;;9.63;;
703;SDS011;335;48.694;9.120;2024-01-15T05:47:49;14.45;;;9.30;;
703;SDS011;335;48.694;9.120;2024-01-15T05:50:35;14.25;;;8.88;;
703;SDS011;335;48.694;9.120;2024-01-15T05:53:20;18.35;;;12.32;;
703;SDS011;335;48.694;9.120;2024-01-15T05:56:05;14.73;;;8.82;;
703;SDS011;335;48.694;9.120;2024-01-15T05:58:51;16.27;;;9.38;;
703;SDS011;335;48.694;9.120;2024-01-15T06:01:37;13.77;;;8.45;;
703;SDS011;335;48.694;9.120;2024-01-15T06:04:22;17.17;;;9.95;;
703;SDS011;335;48.694;9.120;2024-01-15T06:07:07;14.60;;;9.48;;
703;SDS011;335;48.694;9.120;2024-01-15T06:09:53;13.93;;;8.68;;
703;SDS011;335;48.694;9.120;2024-01-15T06:12:38;11.80;;;9.00;;
703;SDS011;335;48.694;9.120;2024-01-15T06:15:23;12.70;;;8.70;;
703;SDS011;335;48.694;9.120;2024-01-15T06:18:08;14.63;;;9.35;;
703;SDS011;335;48.694;9.120;2024-01-15T06:20:54;14.15;;;9.20;;
703;SDS011;335;48.694;9.120;2024-01-15T06:23:40;15.50;;;10.32;;
703;SDS011;335;48.694;9.120;2024-01-15T06:26:25;14.57;;;9.40;;
703;SDS011;335;48.694;9.120;2024-01-15T06:29:10;16.05;;;10.90;;
703;SDS011;335;48.694;9.120;2024-01-15T06:31:56;13.40;;;9.50;;
703;SDS011;335;48.694;9.120;2024-01-15T06:34:41;14.13;;;9.75;;
703;SDS011;335;48.694;9.120;2024-01-15T06:37:26;15.02;;;9.88;;
703;SDS011;335;48.694;9.120;2024-01-15T06:40:12;15.85;;;9.73;;
703;SDS011;335;48.694;9.120;2024-01-15T06:42:57;12.23;;;7.85;;
703;SDS011;335;48.694;9.120;2024-01-15T06:45:46;18.15;;;10.27;;
703;SDS011;335;48.694;9.120;2024-01-15T06:48:31;15.30;;;9.25;;
703;SDS011;335;48.694;9.120;2024-01-15T06:51:16;14.60;;;8.75;;
703;SDS011;335;48.694;9.120;2024-01-15T06:54:02;10.45;;;7.90;;
703;SDS011;335;48.694;9.120;2024-01-15T06:56:47;10.82;;;7.93;;
703;SDS011;335;48.694;9.120;2024-01-15T06:59:33;9.98;;;7.55;;
703;SDS011;335;48.694;9.120;2024-01-15T07:02:20;12.38;;;8.27;;
703;SDS011;335;48.694;9.120;2024-01-15T07:05:06;10.90;;;8.38;;
703;SDS011;335;48.694;9.120;2024-01-15T07:07:52;8.45;;;6.93;;
703;SDS011;335;48.694;9.120;2024-01-15T07:10:37;11.65;;;8.32;;
703;SDS011;335;48.694;9.120;2024-01-15T07:13:22;12.73;;;8.85;;
703;SDS011;335;48.694;9.120;2024-01-15T07:16:08;14.60;;;8.50;;
703;SDS011;335;48.694;9.120;2024-01-15T07:18:53;12.68;;;8.43;;
703;SDS011;335;48.694;9.120;2024-01-15T07:21:39;14.45;;;10.15;;
703;SDS011;335;48.694;9.120;2024-01-15T07:24:25;12.85;;;9.27;;
703;SDS011;335;48.694;9.120;2024-01-15T07:27:10;9.95;;;8.27;;
703;SDS011;335;48.694;9.120;2024-01-15T07:29:55;11.80;;;8.98;;
703;SDS011;335;48.694;9.120;2024-01-15T07:32:41;12.30;;;8.48;;
703;SDS011;335;48.694;9.120;2024-01-15T07:35:27;12.10;;;7.90;;
703;SDS011;335;48.694;9.120;2024-01-15T07:38:12;13.52;;;9.02;;
703;SDS011;335;48.694;9.120;2024-01-15T07:40:57;13.60;;;9.30;;
703;SDS011;335;48.694;9.120;2024-01-15T07:43:43;12.85;;;9.15;;
703;SDS011;335;48.694;9.120;2024-01-15T07:46:28;14.75;;;9.32;;
703;SDS011;335;48.694;9.120;2024-01-15T07:49:14;13.30;;;8.18;;
703;SDS011;335;48.694;9.120;2024-01-15T07:51:59;10.35;;;8.48;;
703;SDS011;335;48.694;9.120;2024-01-15T07:54:45;9.65;;;7.32;;
703;SDS011;335;48.694;9.120;2024-01-15T07:57:30;11.75;;;7.63;;
703;SDS011;335;48.694;9.120;2024-01-15T08:00:16;13.38;;;8.02;;
703;SDS011;335;48.694;9.120;2024-01-15T08:03:01;10.40;;;7.03;;
703;SDS011;335;48.694;9.120;2024-01-15T08:05:47;10.60;;;7.50;;
703;SDS011;335;48.694;9.120;2024-01-15T08:08:36;10.77;;;8.20;;
703;SDS011;335;48.694;9.120;2024-01-15T08:11:22;11.63;;;6.82;;
703;SDS011;335;48.694;9.120;2024-01-15T08:14:07;14.23;;;5.80;;
703;SDS011;335;48.694;9.120;2024-01-15T08:16:53;10.20;;;6.43;;
703;SDS011;335;48.694;9.120;2024-01-15T08:19:38;11.23;;;6.53;;
703;SDS011;335;48.694;9.120;2024-01-15T08:22:26;8.43;;;7.18;;
703;SDS011;335;48.694;9.120;2024-01-15T08:25:11;9.85;;;6.22;;
703;SDS011;335;48.694;9.120;2024-01-15T08:27:58;9.40;;;6.10;;
703;SDS011;335;48.694;9.120;2024-01-15T08:30:43;10.93;;;7.10;;
703;SDS011;335;48.694;9.120;2024-01-15T08:33:28;7.45;;;5.80;;
703;SDS011;335;48.694;9.120;2024-01-15T08:36:14;9.23;;;5.82;;
703;SDS011;335;48.694;9.120;2024-01-15T08:38:59;7.45;;;5.45;;
703;SDS011;335;48.694;9.120;2024-01-15T08:41:45;5.97;;;5.07;;
703;SDS011;335;48.694;9.120;2024-01-15T08:44:31;6.43;;;4.90;;
703;SDS011;335;48.694;9.120;2024-01-15T08:47:17;7.82;;;5.30;;
703;SDS011;335;48.694;9.120;2024-01-15T08:50:02;6.32;;;4.93;;
703;SDS011;335;48.694;9.120;2024-01-15T08:52:48;7.40;;;5.60;;
703;SDS011;335;48.694;9.120;2024-01-15T08:55:33;4.68;;;4.03;;
703;SDS011;335;48.694;9.120;2024-01-15T08:58:19;8.05;;;5.07;;
703;SDS011;335;48.694;9.120;2024-01-15T09:01:04;4.70;;;4.25;;
703;SDS011;335;48.694;9.120;2024-01-15T09:03:50;4.32;;;3.92;;
703;SDS011;335;48.694;9.120;2024-01-15T09:06:35;5.90;;;4.57;;
703;SDS011;335;48.694;9.120;2024-01-15T09:09:21;6.78;;;5.15;;
703;SDS011;335;48.694;9.120;2024-01-15T09:12:07;5.20;;;3.83;;
703;SDS011;335;48.694;9.120;2024-01-15T09:14:53;4.13;;;3.70;;
703;SDS011;335;48.694;9.120;2024-01-15T09:17:38;5.28;;;4.00;;
703;SDS011;335;48.694;9.120;2024-01-15T09:20:24;4.57;;;3.70;;
703;SDS011;335;48.694;9.120;2024-01-15T09:23:10;4.15;;;3.70;;
703;SDS011;335;48.694;9.120;2024-01-15T09:25:56;3.95;;;3.65;;
703;SDS011;335;48.694;9.120;2024-01-15T09:28:41;4.47;;;3.10;;
703;SDS011;335;48.694;9.120;2024-01-15T09:31:27;4.70;;;3.47;;
703;SDS011;335;48.694;9.120;2024-01-15T09:34:12;3.80;;;3.47;;
703;SDS011;335;48.694;9.120;2024-01-15T09:36:57;5.88;;;3.42;;
703;SDS011;335;48.694;9.120;2024-01-15T09:39:43;5.43;;;3.80;;
703;SDS011;335;48.694;9.120;2024-01-15T09:42:28;4.60;;;3.55;;
703;SDS011;335;48.694;9.120;2024-01-15T09:45:14;4.00;;;3.45;;
703;SDS011;335;48.694;9.120;2024-01-15T09:47:59;5.30;;;4.00;;
703;SDS011;335;48.694;9.120;2024-01-15T09:50:46;3.70;;;3.40;;
703;SDS011;335;48.694;9.120;2024-01-15T09:53:32;4.13;;;3.50;;
703;SDS011;335;48.694;9.120;2024-01-15T09:56:18;6.60;;;4.40;;
703;SDS011;335;48.694;9.120;2024-01-15T09:59:04;4.28;;;3.92;;
703;SDS011;335;48.694;9.120;2024-01-15T10:01:50;5.30;;;4.10;;
703;SDS011;335;48.694;9.120;2024-01-15T10:04:35;5.35;;;3.75;;
703;SDS011;335;48.694;9.120;2024-01-15T10:07:20;4.50;;;3.88;;
703;SDS011;335;48.694;9.120;2024-01-15T10:10:07;5.40;;;4.82;;
703;SDS011;335;48.694;9.120;2024-01-15T10:12:52;3.30;;;3.00;;
703;SDS011;335;48.694;9.120;2024-01-15T10:15:39;4.47;;;3.95;;
703;SDS011;335;48.694;9.120;2024-01-15T10:18:24;5.55;;;4.07;;
703;SDS011;335;48.694;9.120;2024-01-15T10:21:09;5.40;;;3.90;;
703;SDS011;335;48.694;9.120;2024-01-15T10:23:55;3.58;;;3.28;;
703;SDS011;335;48.694;9.120;2024-01-15T10:26:40;5.55;;;4.40;;
703;SDS011;335;48.694;9.120;2024-01-15T10:29:25;6.28;;;4.80;;
703;SDS011;335;48.694;9.120;2024-01-15T10:32:11;6.70;;;3.85;;
703;SDS011;335;48.694;9.120;2024-01-15T10:34:57;4.28;;;3.58;;
703;SDS011;335;48.694;9.120;2024-01-15T10:37:42;4.55;;;4.15;;
703;SDS011;335;48.694;9.120;2024-01-15T10:40:28;7.07;;;4.30;;
703;SDS011;335;48.694;9.120;2024-01-15T10:43:14;4.65;;;4.25;;
703;SDS011;335;48.694;9.120;2024-01-15T10:45:59;4.72;;;3.80;;
703;SDS011;335;48.694;9.120;2024-01-15T10:48:44;6.07;;;4.47;;
703;SDS011;335;48.694;9.120;2024-01-15T10:51:30;4.78;;;3.80;;
703;SDS011;335;48.694;9.120;2024-01-15T10:54:16;5.40;;;3.95;;
703;SDS011;335;48.694;9.120;2024-01-15T10:57:01;5.40;;;3.90;;
703;SDS011;335;48.694;9.120;2024-01-15T10:59:47;5.50;;;4.15;;
703;SDS011;335;48.694;9.120;2024-01-15T11:02:33;3.88;;;3.55;;
703;SDS011;335;48.694;9.120;2024-01-15T11:05:19;4.53;;;4.10;;
703;SDS011;335;48.694;9.120;2024-01-15T11:08:07;5.85;;;4.30;;
703;SDS011;335;48.694;9.120;2024-01-15T11:10:52;5.18;;;4.13;;
703;SDS011;335;48.694;9.120;2024-01-15T11:13:40;5.50;;;3.53;;
703;SDS011;335;48.694;9.120;2024-01-15T11:16:25;6.68;;;3.95;;
703;SDS011;335;48.694;9.120;2024-01-15T11:25:14;5.20;;;4.40;;
703;SDS011;335;48.694;9.120;2024-01-15T11:28:00;5.35;;;3.90;;
703;SDS011;335;48.694;9.120;2024-01-15T11:30:47;4.50;;;4.07;;
703;SDS011;335;48.694;9.120;2024-01-15T11:33:32;4.30;;;3.80;;
703;SDS011;335;48.694;9.120;2024-01-15T11:36:18;5.22;;;4.28;;
703;SDS011;335;48.694;9.120;2024-01-15T11:39:50;4.57;;;4.18;;
703;SDS011;335;48.694;9.120;2024-01-15T11:42:12;6.40;;;5.13;;
703;SDS011;335;48.694;9.120;2024-01-15T11:44:57;4.95;;;4.30;;
703;SDS011;335;48.694;9.120;2024-01-15T11:50:53;6.57;;;4.32;;
703;SDS011;335;48.694;9.120;2024-01-15T11:53:48;6.32;;;4.63;;
703;SDS011;335;48.694;9.120;2024-01-15T11:56:34;6.43;;;5.30;;
703;SDS011;335;48.694;9.120;2024-01-15T11:59:20;7.70;;;4.65;;
703;SDS011;335;48.694;9.120;2024-01-15T12:02:05;5.40;;;4.60;;
703;SDS011;335;48.694;9.120;2024-01-15T12:04:50;6.32;;;4.50;;
703;SDS011;335;48.694;9.120;2024-01-15T12:07:36;5.05;;;4.40;;
703;SDS011;335;48.694;9.120;2024-01-15T12:10:21;6.38;;;5.13;;
703;SDS011;335;48.694;9.120;2024-01-15T12:13:10;5.93;;;5.00;;
703;SDS011;335;48.694;9.120;2024-01-15T12:15:57;5.13;;;4.60;;
703;SDS011;335;48.694;9.120;2024-01-15T12:18:43;5.03;;;4.28;;
703;SDS011;335;48.694;9.120;2024-01-15T12:21:28;6.03;;;5.10;;
703;SDS011;335;48.694;9.120;2024-01-15T12:24:13;5.72;;;4.82;;
703;SDS011;335;48.694;9.120;2024-01-15T12:26:59;7.93;;;5.40;;
703;SDS011;335;48.694;9.120;2024-01-15T12:29:47;7.63;;;6.28;;
703;SDS011;335;48.694;9.120;2024-01-15T12:32:34;6.50;;;5.57;;
703;SDS011;335;48.694;9.120;2024-01-15T12:35:19;7.38;;;5.45;;
703;SDS011;335;48.694;9.120;2024-01-15T12:38:05;9.43;;;5.93;;
703;SDS011;335;48.694;9.120;2024-01-15T12:40:51;5.80;;;5.30;;
703;SDS011;335;48.694;9.120;2024-01-15T12:43:36;7.45;;;5.95;;
703;SDS011;335;48.694;9.120;2024-01-15T12:46:21;7.65;;;6.25;;
703;SDS011;335;48.694;9.120;2024-01-15T12:49:08;9.27;;;5.68;;
703;SDS011;335;48.694;9.120;2024-01-15T12:51:53;9.32;;;6.53;;
703;SDS011;335;48.694;9.120;2024-01-15T12:54:40;5.05;;;4.50;;
703;SDS011;335;48.694;9.120;2024-01-15T12:57:25;4.93;;;4.40;;
703;SDS011;335;48.694;9.120;2024-01-15T13:00:11;8.93;;;5.60;;
703;SDS011;335;48.694;9.120;2024-01-15T13:02:57;6.00;;;5.40;;
703;SDS011;335;48.694;9.120;2024-01-15T13:05:42;6.15;;;5.55;;
703;SDS011;335;48.694;9.120;2024-01-15T13:08:28;7.97;;;5.07;;
703;SDS011;335;48.694;9.120;2024-01-15T13:11:14;7.57;;;5.10;;
703;SDS011;335;48.694;9.120;2024-01-15T13:14:00;5.47;;;4.93;;
703;SDS011;335;48.694;9.120;2024-01-15T13:16:47;7.55;;;4.97;;
703;SDS011;335;48.694;9.120;2024-01-15T13:19:33;5.78;;;5.22;;
703;SDS011;335;48.694;9.120;2024-01-15T13:22:18;7.47;;;6.13;;
703;SDS011;335;48.694;9.120;2024-01-15T13:25:04;6.63;;;5.32;;
703;SDS011;335;48.694;9.120;2024-01-15T13:27:52;7.78;;;4.80;;
703;SDS011;335;48.694;9.120;2024-01-15T13:30:37;7.85;;;5.55;;
703;SDS011;335;48.694;9.120;2024-01-15T13:33:22;8.55;;;4.75;;
703;SDS011;335;48.694;9.120;2024-01-15T13:36:08;5.90;;;4.80;;
703;SDS011;335;48.694;9.120;2024-01-15T13:38:55;5.03;;;4.35;;
703;SDS011;335;48.694;9.120;2024-01-15T13:41:40;6.57;;;5.35;;
703;SDS011;335;48.694;9.120;2024-01-15T13:44:26;5.68;;;4.43;;
703;SDS011;335;48.694;9.120;2024-01-15T13:47:12;5.13;;;4.15;;
703;SDS011;335;48.694;9.120;2024-01-15T13:49:58;4.80;;;4.30;;
703;SDS011;335;48.694;9.120;2024-01-15T13:52:44;3.20;;;2.90;;
703;SDS011;335;48.694;9.120;2024-01-15T13:55:29;4.25;;;3.85;;
703;SDS011;335;48.694;9.120;2024-01-15T13:58:15;4.75;;;4.03;;
703;SDS011;335;48.694;9.120;2024-01-15T14:01:01;4.63;;;4.22;;
703;SDS011;335;48.694;9.120;2024-01-15T14:03:48;4.07;;;3.35;;
703;SDS011;335;48.694;9.120;2024-01-15T14:06:34;5.47;;;3.65;;
703;SDS011;335;48.694;9.120;2024-01-15T14:09:19;3.50;;;3.20;;
703;SDS011;335;48.694;9.120;2024-01-15T14:12:06;10.27;;;8.00;;
703;SDS011;335;48.694;9.120;2024-01-15T14:14:52;4.25;;;3.83;;
703;SDS011;335;48.694;9.120;2024-01-15T14:17:37;3.92;;;3.58;;
703;SDS011;335;48.694;9.120;2024-01-15T14:20:23;3.58;;;3.05;;
703;SDS011;335;48.694;9.120;2024-01-15T14:23:08;3.90;;;3.47;;
703;SDS011;335;48.694;9.120;2024-01-15T14:25:54;3.95;;;3.25;;
703;SDS011;335;48.694;9.120;2024-01-15T14:28:39;4.05;;;3.65;;
703;SDS011;335;48.694;9.120;2024-01-15T14:31:24;6.10;;;3.10;;
703;SDS011;335;48.694;9.120;2024-01-15T14:34:11;4.20;;;3.70;;
703;SDS011;335;48.694;9.120;2024-01-15T14:36:56;6.63;;;4.95;;
703;SDS011;335;48.694;9.120;2024-01-15T14:39:42;4.18;;;3.80;;
703;SDS011;335;48.694;9.120;2024-01-15T14:42:28;3.92;;;3.45;;
703;SDS011;335;48.694;9.120;2024-01-15T14:45:13;5.07;;;4.57;;
703;SDS011;335;48.694;9.120;2024-01-15T14:47:58;2.80;;;2.60;;
703;SDS011;335;48.694;9.120;2024-01-15T14:50:44;3.00;;;2.70;;
703;SDS011;335;48.694;9.120;2024-01-15T14:53:29;3.45;;;3.15;;
703;SDS011;335;48.694;9.120;2024-01-15T14:56:14;3.38;;;2.67;;
703;SDS011;335;48.694;9.120;2024-01-15T14:59:00;3.67;;;3.38;;
703;SDS011;335;48.694;9.120;2024-01-15T15:01:46;3.13;;;2.92;;
703;SDS011;335;48.694;9.120;2024-01-15T15:04:32;3.53;;;3.22;;
703;SDS011;335;48.694;9.120;2024-01-15T15:07:17;4.28;;;3.88;;
703;SDS011;335;48.694;9.120;2024-01-15T15:10:02;3.65;;;3.38;;
703;SDS011;335;48.694;9.120;2024-01-15T15:12:49;3.90;;;3.70;;
703;SDS011;335;48.694;9.120;2024-01-15T15:15:35;3.47;;;3.28;;
703;SDS011;335;48.694;9.120;2024-01-15T15:18:20;4.20;;;3.28;;
703;SDS011;335;48.694;9.120;2024-01-15T15:21:06;4.00;;;3.70;;
703;SDS011;335;48.694;9.120;2024-01-15T15:23:52;3.00;;;2.80;;
703;SDS011;335;48.694;9.120;2024-01-15T15:26:37;3.63;;;3.33;;
703;SDS011;335;48.694;9.120;2024-01-15T15:29:22;4.30;;;3.90;;
703;SDS011;335;48.694;9.120;2024-01-15T15:32:09;3.72;;;3.42;;
703;SDS011;335;48.694;9.120;2024-01-15T15:34:57;4.20;;;3.75;;
703;SDS011;335;48.694;9.120;2024-01-15T15:37:43;6.00;;;4.78;;
703;SDS011;335;48.694;9.120;2024-01-15T15:40:28;5.57;;;5.07;;
703;SDS011;335;48.694;9.120;2024-01-15T15:43:13;4.75;;;4.25;;
703;SDS011;335;48.694;9.120;2024-01-15T15:45:59;5.10;;;4.55;;
703;SDS011;335;48.694;9.120;2024-01-15T15:48:44;5.80;;;4.88;;
703;SDS011;335;48.694;9.120;2024-01-15T15:51:30;4.90;;;4.50;;
703;SDS011;335;48.694;9.120;2024-01-15T15:54:15;4.70;;;4.40;;
703;SDS011;335;48.694;9.120;2024-01-15T15:57:01;5.53;;;4.95;;
703;SDS011;335;48.694;9.120;2024-01-15T15:59:48;6.57;;;5.20;;
703;SDS011;335;48.694;9.120;2024-01-15T16:02:33;5.82;;;5.18;;
703;SDS011;335;48.694;9.120;2024-01-15T16:05:19;6.47;;;5.25;;
703;SDS011;335;48.694;9.120;2024-01-15T16:08:04;7.40;;;5.28;;
703;SDS011;335;48.694;9.120;2024-01-15T16:10:49;6.25;;;5.63;;
703;SDS011;335;48.694;9.120;2024-01-15T16:13:36;6.07;;;5.20;;
703;SDS011;335;48.694;9.120;2024-01-15T16:16:21;5.35;;;4.90;;
703;SDS011;335;48.694;9.120;2024-01-15T16:19:11;4.63;;;4.30;;
703;SDS011;335;48.694;9.120;2024-01-15T16:22:00;4.45;;;4.05;;
703;SDS011;335;48.694;9.120;2024-01-15T16:24:51;5.50;;;4.10;;
703;SDS011;335;48.694;9.120;2024-01-15T16:27:37;4.45;;;4.10;;
703;SDS011;335;48.694;9.120;2024-01-15T16:30:25;4.97;;;4.57;;
703;SDS011;335;48.694;9.120;2024-01-15T16:33:11;5.28;;;4.88;;
703;SDS011;335;48.694;9.120;2024-01-15T16:35:58;6.40;;;5.35;;
703;SDS011;335;48.694;9.120;2024-01-15T16:38:43;6.72;;;5.57;;
703;SDS011;335;48.694;9.120;2024-01-15T16:41:29;8.07;;;5.68;;
703;SDS011;335;48.694;9.120;2024-01-15T16:44:14;7.75;;;4.97;;
703;SDS011;335;48.694;9.120;2024-01-15T16:46:59;6.13;;;5.00;;
703;SDS011;335;48.694;9.120;2024-01-15T16:49:46;5.53;;;5.03;;
703;SDS011;335;48.694;9.120;2024-01-15T16:52:31;4.80;;;4.40;;
703;SDS011;335;48.694;9.120;2024-01-15T16:55:16;5.07;;;4.65;;
703;SDS011;335;48.694;9.120;2024-01-15T16:58:02;5.22;;;4.55;;
703;SDS011;335;48.694;9.120;2024-01-15T17:00:47;6.18;;;4.70;;
703;SDS011;335;48.694;9.120;2024-01-15T17:03:32;5.53;;;5.13;;
703;SDS011;335;48.694;9.120;2024-01-15T17:06:18;5.40;;;4.90;;
703;SDS011;335;48.694;9.120;2024-01-15T17:09:03;5.35;;;4.85;;
703;SDS011;335;48.694;9.120;2024-01-15T17:11:49;4.93;;;4.43;;
703;SDS011;335;48.694;9.120;2024-01-15T17:14:34;4.40;;;4.10;;
703;SDS011;335;48.694;9.120;2024-01-15T17:17:20;6.38;;;5.30;;
703;SDS011;335;48.694;9.120;2024-01-15T17:20:08;5.93;;;5.35;;
703;SDS011;335;48.694;9.120;2024-01-15T17:22:54;5.47;;;5.00;;
703;SDS011;335;48.694;9.120;2024-01-15T17:25:39;6.38;;;5.75;;
703;SDS011;335;48.694;9.120;2024-01-15T17:28:24;4.07;;;3.83;;
703;SDS011;335;48.694;9.120;2024-01-15T17:31:10;4.85;;;4.45;;
703;SDS011;335;48.694;9.120;2024-01-15T17:33:57;7.15;;;5.30;;
703;SDS011;335;48.694;9.120;2024-01-15T17:36:42;5.95;;;5.22;;
703;SDS011;335;48.694;9.120;2024-01-15T17:39:28;6.03;;;5.45;;
703;SDS011;335;48.694;9.120;2024-01-15T17:42:13;5.68;;;4.75;;